Time;durP1;ratioP1;P1;durP2;ratioP2;P2;SDS_P1;SDS_P2;PMS_P1;PMS_P2;Temp;Humidity;BMP_temperature;BMP_pressure;BME280_temperature;BME280_humidity;BME280_pressure;Samples;Min_cycle;Max_cycle;Signal;HPM_P1;HPM_P2
2022/04/02 00:05:37;;;;;;;4.00;3.20;;;;;;;-1.97;79.34;98167.55;447530;1268;183805;-60
2022/04/02 00:15:43;;;;;;;4.30;2.90;;;;;;;-1.99;79.29;98160.61;441939;1269;143441;-58
2022/04/02 00:25:49;;;;;;;5.80;3.40;;;;;;;-2.00;79.47;98147.09;447752;1269;142313;-57
2022/04/02 00:35:55;;;;;;;7.70;4.50;;;;;;;-2.00;79.48;98143.48;443894;1270;144439;-57
2022/04/02 00:46:05;;;;;;;6.70;3.70;;;;;;;-2.05;79.46;98137.14;447005;1268;141607;-58
2022/04/02 00:56:13;;;;;;;5.70;4.70;;;;;;;-2.08;79.62;98139.84;447808;1269;142141;-58
2022/04/02 01:06:20;;;;;;;7.80;5.30;;;;;;;-2.10;79.59;98141.09;447747;1268;142066;-59
2022/04/02 01:16:27;;;;;;;5.60;5.00;;;;;;;-2.09;79.67;98143.30;447500;1269;141312;-60
2022/04/02 01:26:33;;;;;;;8.00;5.30;;;;;;;-2.10;79.58;98137.84;447672;1269;143443;-59
2022/04/02 01:36:39;;;;;;;7.00;5.10;;;;;;;-2.13;79.77;98142.91;446827;1269;142444;-59
2022/04/02 01:46:45;;;;;;;4.80;3.70;;;;;;;-2.09;79.85;98152.05;447676;1269;142552;-60
2022/04/02 01:56:51;;;;;;;8.90;5.80;;;;;;;-2.08;79.62;98153.05;447639;1269;142311;-60
2022/04/02 02:06:57;;;;;;;7.10;3.90;;;;;;;-2.10;79.58;98159.80;446857;1269;142440;-61
2022/04/02 02:17:03;;;;;;;4.10;3.50;;;;;;;-2.07;79.50;98170.52;439794;1269;142236;-59
2022/04/02 02:27:10;;;;;;;4.30;3.30;;;;;;;-2.07;79.46;98169.99;447637;1269;143262;-60
2022/04/02 02:37:16;;;;;;;9.80;3.50;;;;;;;-2.10;79.45;98177.95;446867;1270;145967;-59
2022/04/02 02:47:21;;;;;;;5.40;3.00;;;;;;;-2.12;79.40;98182.84;443698;1269;141558;-59
2022/04/02 02:57:28;;;;;;;4.20;2.90;;;;;;;-2.17;79.28;98181.98;446510;1270;141429;-60
2022/04/02 03:07:38;;;;;;;5.90;4.10;;;;;;;-2.23;79.27;98178.93;439737;1270;141680;-59
2022/04/02 03:17:44;;;;;;;5.00;4.20;;;;;;;-2.29;79.24;98176.58;447278;1270;142769;-60
2022/04/02 03:27:50;;;;;;;6.90;4.70;;;;;;;-2.32;79.25;98179.39;446545;1269;142450;-59
2022/04/02 03:37:56;;;;;;;6.00;5.00;;;;;;;-2.33;79.29;98184.23;447262;1269;144599;-59
2022/04/02 03:48:02;;;;;;;7.60;6.10;;;;;;;-2.38;79.41;98181.66;447260;1270;142236;-59
2022/04/02 03:58:09;;;;;;;9.10;8.20;;;;;;;-2.42;79.70;98189.00;446576;1269;144352;-59
2022/04/02 04:08:15;;;;;;;10.00;8.60;;;;;;;-2.45;79.85;98197.98;447356;1270;142824;-58
2022/04/02 04:18:21;;;;;;;9.60;8.70;;;;;;;-2.52;79.63;98202.34;447352;1269;143715;-59
2022/04/02 04:28:28;;;;;;;10.90;9.80;;;;;;;-2.57;79.58;98206.29;447501;1270;143931;-59
2022/04/02 04:38:34;;;;;;;11.90;10.20;;;;;;;-2.57;79.51;98215.00;447439;1270;141821;-59
2022/04/02 04:48:39;;;;;;;13.50;10.60;;;;;;;-2.61;79.52;98216.51;443379;1270;143118;-60
2022/04/02 04:58:45;;;;;;;13.10;11.80;;;;;;;-2.54;79.42;98220.23;447275;1270;142437;-60
2022/04/02 05:08:51;;;;;;;12.50;11.30;;;;;;;-2.49;79.30;98228.63;447192;1271;142730;-60
2022/04/02 05:18:57;;;;;;;13.30;11.90;;;;;;;-2.39;79.07;98227.80;446594;1270;143361;-60
2022/04/02 05:29:03;;;;;;;14.00;11.60;;;;;;;-2.27;78.79;98239.05;447336;1270;146294;-60
2022/04/02 05:39:14;;;;;;;15.50;12.10;;;;;;;-2.16;78.67;98242.30;447251;1270;141985;-59
2022/04/02 05:49:21;;;;;;;15.80;14.00;;;;;;;-2.13;78.38;98248.04;439883;1268;143405;-59
2022/04/02 05:59:28;;;;;;;10.80;9.60;;;;;;;-2.09;77.99;98258.20;447434;1269;143576;-60
2022/04/02 06:09:33;;;;;;;10.00;9.00;;;;;;;-2.01;77.42;98267.02;446416;1270;142399;-60
2022/04/02 06:19:39;;;;;;;9.00;7.70;;;;;;;-1.83;77.10;98278.23;447571;1268;141822;-60
2022/04/02 06:29:45;;;;;;;10.50;9.40;;;;;;;-1.72;76.68;98279.23;447370;1270;141393;-59
2022/04/02 06:39:51;;;;;;;8.50;6.40;;;;;;;-1.26;76.57;98286.68;436894;1270;141663;-59
2022/04/02 06:49:58;;;;;;;5.70;5.10;;;;;;;-0.71;75.07;98283.97;442690;1270;144210;-59
2022/04/02 07:00:04;;;;;;;6.30;5.60;;;;;;;-0.53;74.46;98294.63;447256;1269;142225;-59
2022/04/02 07:10:11;;;;;;;6.80;5.40;;;;;;;-0.39;74.06;98306.61;446813;1270;142813;-59
2022/04/02 07:20:20;;;;;;;6.00;5.30;;;;;;;-0.23;73.02;98310.98;447590;1270;142931;-59
2022/04/02 07:30:25;;;;;;;6.70;6.10;;;;;;;-0.36;72.67;98304.63;447603;1269;141844;-59
2022/04/02 07:40:37;;;;;;;10.20;5.60;;;;;;;-0.32;72.50;98314.11;447713;1269;141595;-59
2022/04/02 07:50:46;;;;;;;7.90;4.40;;;;;;;-0.37;72.28;98321.85;447584;1270;142659;-60
2022/04/02 08:00:56;;;;;;;8.70;6.20;;;;;;;-0.18;71.77;98327.47;446814;1270;141931;-60
2022/04/02 08:11:03;;;;;;;9.30;5.30;;;;;;;0.33;71.56;98338.08;447522;1269;141987;-60
2022/04/02 08:21:09;;;;;;;7.20;5.00;;;;;;;1.33;70.00;98334.80;447724;1270;142983;-60
2022/04/02 08:31:26;;;;;;;6.70;5.30;;;;;;;1.72;69.01;98340.77;435505;1270;141855;-61
2022/04/02 08:42:09;;;;;;;6.80;5.80;;;;;;;2.45;68.16;98341.33;445911;1270;142221;-59
2022/04/02 08:52:29;;;;;;;4.90;4.40;;;;;;;2.79;66.62;98349.48;446872;1269;142698;-59
2022/04/02 09:03:24;;;;;;;5.50;4.70;;;;;;;2.98;65.64;98352.63;447537;1270;141885;-60
2022/04/02 09:14:05;;;;;;;7.00;4.60;;;;;;;2.83;64.98;98358.58;446737;1270;141934;-59
2022/04/02 09:24:31;;;;;;;6.20;3.60;;;;;;;2.98;64.83;98360.92;442030;1270;143129;-59
2022/04/02 09:35:06;;;;;;;6.30;4.80;;;;;;;3.22;64.60;98366.22;447425;1269;142591;-60
2022/04/02 09:45:14;;;;;;;6.20;4.10;;;;;;;3.90;63.98;98365.31;447544;1268;143261;-62
2022/04/02 09:55:27;;;;;;;4.80;4.20;;;;;;;4.41;63.20;98368.70;446638;1269;142632;-62
2022/04/02 10:05:44;;;;;;;5.10;4.30;;;;;;;4.53;62.89;98371.83;445148;1269;141519;-59
2022/04/02 10:15:52;;;;;;;5.20;4.60;;;;;;;4.08;62.53;98373.83;442090;1269;141459;-60
2022/04/02 10:26:17;;;;;;;7.50;5.10;;;;;;;3.57;63.32;98372.52;437529;1269;141244;-59
2022/04/02 10:36:23;;;;;;;6.90;5.10;;;;;;;3.80;62.98;98372.60;435146;1270;142335;-59
2022/04/02 10:46:32;;;;;;;6.70;5.50;;;;;;;3.94;62.26;98369.59;442577;1270;142270;-60
2022/04/02 10:56:44;;;;;;;6.70;5.50;;;;;;;3.86;61.81;98372.14;441885;1269;143303;-60
2022/04/02 11:06:51;;;;;;;8.00;5.70;;;;;;;3.96;60.75;98377.10;435394;1269;141714;-61
2022/04/02 11:16:58;;;;;;;11.00;6.10;;;;;;;4.07;60.07;98379.80;447475;1269;143946;-60
2022/04/02 11:27:05;;;;;;;12.80;6.70;;;;;;;4.17;59.62;98372.48;442497;1269;141587;-59
2022/04/02 11:37:15;;;;;;;9.70;6.30;;;;;;;4.42;58.58;98368.79;446704;1270;143003;-61
2022/04/02 11:47:28;;;;;;;8.20;5.80;;;;;;;4.57;58.17;98368.44;447576;1269;142105;-61
2022/04/02 11:57:34;;;;;;;6.30;5.40;;;;;;;4.89;57.34;98362.89;446611;1268;254928;-61
2022/04/02 12:07:46;;;;;;;8.40;5.10;;;;;;;5.18;56.50;98361.71;447537;1269;141519;-60
2022/04/02 12:18:11;;;;;;;7.60;5.10;;;;;;;5.24;55.17;98363.23;447381;1270;140662;-61
2022/04/02 12:28:21;;;;;;;9.20;6.90;;;;;;;4.78;54.70;98363.89;431626;1270;140649;-61
2022/04/02 12:38:29;;;;;;;9.50;5.90;;;;;;;4.75;54.87;98362.37;431240;1270;145414;-58
2022/04/02 12:48:45;;;;;;;6.70;4.90;;;;;;;4.72;54.60;98363.05;431571;1270;140498;-64
2022/04/02 12:58:52;;;;;;;6.20;5.50;;;;;;;4.87;54.50;98365.11;447691;1270;141465;-60
2022/04/02 13:09:01;;;;;;;7.20;5.00;;;;;;;5.20;54.23;98366.59;447686;1269;141436;-60
2022/04/02 13:29:52;;;;;;;6.30;4.80;;;;;;;6.10;53.35;98369.32;447672;1270;141802;-61
2022/04/02 13:40:03;;;;;;;12.30;5.60;;;;;;;5.96;52.06;98371.08;446845;1270;141452;-60
2022/04/02 13:50:13;;;;;;;9.20;5.60;;;;;;;5.98;52.17;98380.67;447357;1268;142848;-58
2022/04/02 14:00:19;;;;;;;6.00;5.20;;;;;;;6.25;51.56;98385.75;447576;1269;141356;-60
2022/04/02 14:10:25;;;;;;;6.60;6.00;;;;;;;6.31;51.54;98385.70;446912;1269;141314;-61
2022/04/02 14:20:31;;;;;;;7.40;5.30;;;;;;;6.47;51.04;98386.09;444651;1270;140948;-60
2022/04/02 14:31:07;;;;;;;10.90;4.70;;;;;;;6.33;50.53;98398.81;430404;1270;142654;-57
2022/04/02 14:41:27;;;;;;;8.00;5.70;;;;;;;6.18;49.99;98403.92;447695;1269;142547;-60
2022/04/02 14:52:06;;;;;;;6.80;5.20;;;;;;;5.93;48.90;98404.29;441690;1269;141822;-60
2022/04/02 15:02:57;;;;;;;5.50;4.30;;;;;;;5.92;48.89;98412.17;430801;1269;141019;-60
2022/04/02 15:13:06;;;;;;;5.20;4.60;;;;;;;5.84;48.65;98424.98;431650;1269;143268;-60
2022/04/02 15:23:16;;;;;;;6.40;4.20;;;;;;;5.64;48.31;98428.32;447535;1269;143505;-60
2022/04/02 15:33:25;;;;;;;8.10;4.10;;;;;;;5.51;47.79;98430.64;447415;1270;142852;-59
2022/04/02 15:43:33;;;;;;;7.50;3.40;;;;;;;5.34;47.45;98446.30;447531;1269;141367;-59
2022/04/02 15:53:37;;;;;;;;;;;;;;;5.08;46.53;98449.55;447584;1269;140794;-59
2022/04/02 16:03:48;;;;;;;6.50;4.30;;;;;;;4.89;46.16;98460.05;446882;1268;127747;-58
2022/04/02 16:14:04;;;;;;;8.80;4.90;;;;;;;4.72;46.19;98471.05;447542;1269;141317;-59
2022/04/02 16:24:11;;;;;;;7.30;3.70;;;;;;;4.55;45.13;98481.93;447418;1269;142516;-58
2022/04/02 16:34:24;;;;;;;6.00;3.90;;;;;;;4.37;44.50;98490.56;437538;1270;142042;-60
2022/04/02 16:44:31;;;;;;;8.20;5.20;;;;;;;4.17;44.64;98503.61;442166;1269;141203;-58
2022/04/02 16:54:37;;;;;;;9.10;5.50;;;;;;;3.96;44.04;98509.92;443786;1269;140634;-59
2022/04/02 17:04:54;;;;;;;8.50;4.60;;;;;;;3.77;43.69;98526.30;447017;1270;141201;-61
2022/04/02 17:15:00;;;;;;;9.40;5.40;;;;;;;3.59;43.97;98533.83;438189;1270;141010;-60
2022/04/02 17:25:08;;;;;;;8.40;5.10;;;;;;;3.44;43.33;98541.91;438590;1270;141046;-60
2022/04/02 17:35:17;;;;;;;9.40;5.30;;;;;;;3.30;43.14;98557.98;447153;1270;142116;-60
2022/04/02 17:45:32;;;;;;;8.20;5.20;;;;;;;3.22;42.43;98569.11;440721;1270;139954;-60
2022/04/02 17:55:39;;;;;;;6.50;4.30;;;;;;;3.12;42.75;98590.00;438152;1269;141964;-60
2022/04/02 18:05:48;;;;;;;10.50;5.10;;;;;;;3.00;43.13;98616.52;442446;1269;142026;-60
2022/04/02 18:15:54;;;;;;;6.70;4.20;;;;;;;2.85;43.72;98629.70;436524;1270;141400;-59
2022/04/02 18:26:00;;;;;;;11.40;4.50;;;;;;;2.65;44.17;98644.44;439834;1270;140718;-60
2022/04/02 18:36:07;;;;;;;9.40;4.40;;;;;;;2.42;44.79;98667.95;440539;1270;141317;-60
2022/04/02 18:46:14;;;;;;;8.70;4.30;;;;;;;2.20;45.64;98680.14;447073;1269;141927;-59
2022/04/02 18:56:19;;;;;;;12.60;4.30;;;;;;;1.95;46.57;98703.00;435830;1269;141174;-58
2022/04/02 19:06:27;;;;;;;10.30;4.70;;;;;;;1.68;47.37;98721.72;431005;1270;141747;-61
2022/04/02 19:16:32;;;;;;;7.70;3.90;;;;;;;1.36;48.34;98735.73;431114;1269;141079;-61
2022/04/02 19:26:39;;;;;;;10.20;4.40;;;;;;;1.07;49.00;98752.40;439647;1269;141321;-61
2022/04/02 19:36:44;;;;;;;7.60;5.20;;;;;;;0.82;50.09;98764.16;440551;1270;142106;-61
2022/04/02 19:46:50;;;;;;;11.50;5.10;;;;;;;0.62;50.87;98781.12;433431;1269;145469;-60
2022/04/02 19:56:57;;;;;;;8.60;4.40;;;;;;;0.42;51.25;98790.60;446581;1270;141226;-61
2022/04/02 20:07:03;;;;;;;8.40;3.90;;;;;;;0.21;51.99;98793.86;441799;1270;194745;-61
2022/04/02 20:17:12;;;;;;;7.50;4.20;;;;;;;0.02;52.76;98801.75;441647;1270;141800;-61
2022/04/02 20:27:18;;;;;;;11.00;5.40;;;;;;;-0.19;53.35;98818.27;433794;1270;140313;-60
2022/04/02 20:37:24;;;;;;;10.90;6.20;;;;;;;-0.41;54.08;98832.02;437821;1270;141950;-60
2022/04/02 20:47:29;;;;;;;9.20;5.50;;;;;;;-0.57;54.77;98841.65;432192;1270;141159;-59
2022/04/02 20:57:36;;;;;;;5.00;4.10;;;;;;;-0.71;55.28;98848.23;436344;1269;141744;-60
2022/04/02 21:07:42;;;;;;;12.40;4.60;;;;;;;-0.80;55.63;98853.66;440503;1269;141608;-61
2022/04/02 21:17:47;;;;;;;10.10;4.80;;;;;;;-0.92;56.08;98865.85;437861;1269;142325;-61
2022/04/02 21:27:54;;;;;;;6.90;4.30;;;;;;;-1.06;56.70;98872.61;432532;1269;195649;-59
2022/04/02 21:38:00;;;;;;;7.30;4.50;;;;;;;-1.22;56.99;98876.48;439813;1269;140717;-59
2022/04/02 21:48:06;;;;;;;10.10;5.40;;;;;;;-1.36;57.66;98890.40;434611;1269;140912;-60
2022/04/02 21:58:12;;;;;;;7.80;4.60;;;;;;;-1.51;58.08;98893.72;446924;1270;141132;-60
2022/04/02 22:08:20;;;;;;;7.80;4.60;;;;;;;-1.66;58.28;98894.77;447932;1269;141577;-61
2022/04/02 22:18:25;;;;;;;6.80;4.10;;;;;;;-1.77;58.76;98896.95;447623;1269;141060;-61
2022/04/02 22:28:33;;;;;;;5.40;3.40;;;;;;;-1.91;59.14;98902.77;447069;1270;141802;-61
2022/04/02 22:38:39;;;;;;;8.60;4.70;;;;;;;-2.06;59.56;98911.01;439044;1269;141365;-60
2022/04/02 22:48:45;;;;;;;9.40;5.00;;;;;;;-2.22;59.98;98910.35;446448;1269;142216;-61
2022/04/02 22:58:51;;;;;;;6.60;4.00;;;;;;;-2.33;60.54;98915.58;447092;1270;142322;-60
2022/04/02 23:08:57;;;;;;;5.80;3.80;;;;;;;-2.43;60.76;98917.83;447306;1270;142341;-61
2022/04/02 23:19:03;;;;;;;6.70;3.50;;;;;;;-2.54;61.32;98923.20;446939;1269;141375;-60
2022/04/02 23:29:10;;;;;;;6.90;3.70;;;;;;;-2.61;61.85;98923.70;444043;1270;141922;-59
2022/04/02 23:39:16;;;;;;;8.40;4.40;;;;;;;-2.70;62.14;98929.20;432006;1271;142459;-59
2022/04/02 23:49:22;;;;;;;6.90;4.00;;;;;;;-2.82;62.49;98925.31;441658;1270;141982;-61
2022/04/02 23:59:27;;;;;;;10.30;3.90;;;;;;;-2.91;62.90;98924.29;447499;1270;216479;-62
